sensor_id;sensor_type;location;lat;lon;timestamp;temperature;humidity
25716;DHT22;13573;50.936;4.328;2022-09-12T00:02:13;15.90;99.90
25716;DHT22;13573;50.936;4.328;2022-09-12T00:04:40;15.30;99.90
25716;DHT22;13573;50.936;4.328;2022-09-12T00:07:07;15.80;99.90
25716;DHT22;13573;50.936;4.328;2022-09-12T00:09:33;16.20;99.90
25716;DHT22;13573;50.936;4.328;2022-09-12T00:12:00;15.60;99.90
25716;DHT22;13573;50.936;4.328;2022-09-12T00:14:26;15.90;99.90
25716;DHT22;13573;50.936;4.328;2022-09-12T00:16:57;15.90;99.90
25716;DHT22;13573;50.936;4.328;2022-09-12T00:19:26;15.50;99.90
25716;DHT22;13573;50.936;4.328;2022-09-12T00:21:53;15.30;99.90
25716;DHT22;13573;50.936;4.328;2022-09-12T00:24:20;16.10;99.90
25716;DHT22;13573;50.936;4.328;2022-09-12T00:26:46;15.20;99.90
25716;DHT22;13573;50.936;4.328;2022-09-12T00:29:16;16.60;99.90
25716;DHT22;13573;50.936;4.328;2022-09-12T00:31:43;15.30;99.90
25716;DHT22;13573;50.936;4.328;2022-09-12T00:34:10;16.30;99.90
25716;DHT22;13573;50.936;4.328;2022-09-12T00:36:39;15.60;99.90
25716;DHT22;13573;50.936;4.328;2022-09-12T00:39:07;15.30;99.90
25716;DHT22;13573;50.936;4.328;2022-09-12T00:41:37;15.20;99.90
25716;DHT22;13573;50.936;4.328;2022-09-12T00:44:42;15.10;99.90
25716;DHT22;13573;50.936;4.328;2022-09-12T00:47:16;16.60;99.90
25716;DHT22;13573;50.936;4.328;2022-09-12T00:52:16;15.80;99.90
25716;DHT22;13573;50.936;4.328;2022-09-12T00:57:14;15.80;99.90
25716;DHT22;13573;50.936;4.328;2022-09-12T00:59:47;14.60;99.90
25716;DHT22;13573;50.936;4.328;2022-09-12T01:02:15;14.90;99.90
25716;DHT22;13573;50.936;4.328;2022-09-12T01:04:43;14.90;99.90
25716;DHT22;13573;50.936;4.328;2022-09-12T01:07:10;15.30;99.90
25716;DHT22;13573;50.936;4.328;2022-09-12T01:09:38;14.20;99.90
25716;DHT22;13573;50.936;4.328;2022-09-12T01:12:07;15.10;99.90
25716;DHT22;13573;50.936;4.328;2022-09-12T01:14:36;15.20;99.90
25716;DHT22;13573;50.936;4.328;2022-09-12T01:28:22;14.70;99.90
25716;DHT22;13573;50.936;4.328;2022-09-12T01:30:51;15.00;99.90
25716;DHT22;13573;50.936;4.328;2022-09-12T01:36:19;14.90;99.90
25716;DHT22;13573;50.936;4.328;2022-09-12T01:44:15;13.90;99.90
25716;DHT22;13573;50.936;4.328;2022-09-12T01:46:48;14.60;99.90
25716;DHT22;13573;50.936;4.328;2022-09-12T01:49:28;14.70;99.90
25716;DHT22;13573;50.936;4.328;2022-09-12T01:52:03;14.60;99.90
25716;DHT22;13573;50.936;4.328;2022-09-12T01:54:35;14.90;99.90
25716;DHT22;13573;50.936;4.328;2022-09-12T01:57:09;14.60;99.90
25716;DHT22;13573;50.936;4.328;2022-09-12T02:02:14;15.20;99.90
25716;DHT22;13573;50.936;4.328;2022-09-12T02:05:05;14.80;99.90
25716;DHT22;13573;50.936;4.328;2022-09-12T02:10:09;14.50;99.90
25716;DHT22;13573;50.936;4.328;2022-09-12T02:15:08;14.40;99.90
25716;DHT22;13573;50.936;4.328;2022-09-12T02:17:38;14.60;99.90
25716;DHT22;13573;50.936;4.328;2022-09-12T02:20:14;14.60;99.90
25716;DHT22;13573;50.936;4.328;2022-09-12T02:25:09;14.60;99.90
25716;DHT22;13573;50.936;4.328;2022-09-12T02:27:44;14.70;99.90
25716;DHT22;13573;50.936;4.328;2022-09-12T02:30:12;14.40;99.90
25716;DHT22;13573;50.936;4.328;2022-09-12T02:32:55;14.40;99.90
25716;DHT22;13573;50.936;4.328;2022-09-12T02:35:32;14.30;99.90
25716;DHT22;13573;50.936;4.328;2022-09-12T02:38:23;14.70;99.90
25716;DHT22;13573;50.936;4.328;2022-09-12T02:40:50;14.40;99.90
25716;DHT22;13573;50.936;4.328;2022-09-12T02:43:19;15.50;99.90
25716;DHT22;13573;50.936;4.328;2022-09-12T02:45:46;14.30;99.90
25716;DHT22;13573;50.936;4.328;2022-09-12T02:58:22;14.50;99.90
25716;DHT22;13573;50.936;4.328;2022-09-12T03:03:36;14.00;99.90
25716;DHT22;13573;50.936;4.328;2022-09-12T03:06:01;13.40;99.90
25716;DHT22;13573;50.936;4.328;2022-09-12T03:08:37;14.30;99.90
25716;DHT22;13573;50.936;4.328;2022-09-12T03:11:20;14.10;99.90
25716;DHT22;13573;50.936;4.328;2022-09-12T03:14:01;14.20;99.90
25716;DHT22;13573;50.936;4.328;2022-09-12T03:26:55;14.20;99.90
25716;DHT22;13573;50.936;4.328;2022-09-12T03:31:53;13.90;99.90
25716;DHT22;13573;50.936;4.328;2022-09-12T03:34:23;14.00;99.90
25716;DHT22;13573;50.936;4.328;2022-09-12T03:41:45;13.90;99.90
25716;DHT22;13573;50.936;4.328;2022-09-12T03:44:11;14.30;99.90
25716;DHT22;13573;50.936;4.328;2022-09-12T03:46:38;14.30;99.90
25716;DHT22;13573;50.936;4.328;2022-09-12T03:49:05;13.80;99.90
25716;DHT22;13573;50.936;4.328;2022-09-12T03:51:31;14.70;99.90
25716;DHT22;13573;50.936;4.328;2022-09-12T03:53:58;14.10;99.90
25716;DHT22;13573;50.936;4.328;2022-09-12T03:56:25;14.10;99.90
25716;DHT22;13573;50.936;4.328;2022-09-12T04:01:19;14.20;99.90
25716;DHT22;13573;50.936;4.328;2022-09-12T04:03:48;14.00;99.90
25716;DHT22;13573;50.936;4.328;2022-09-12T04:06:18;13.90;99.90
25716;DHT22;13573;50.936;4.328;2022-09-12T04:08:49;13.90;99.90
25716;DHT22;13573;50.936;4.328;2022-09-12T04:11:16;13.70;99.90
25716;DHT22;13573;50.936;4.328;2022-09-12T04:16:12;13.60;99.90
25716;DHT22;13573;50.936;4.328;2022-09-12T04:21:11;13.80;99.90
25716;DHT22;13573;50.936;4.328;2022-09-12T04:23:38;13.80;99.90
25716;DHT22;13573;50.936;4.328;2022-09-12T04:26:06;13.70;99.90
25716;DHT22;13573;50.936;4.328;2022-09-12T04:28:34;13.50;99.90
25716;DHT22;13573;50.936;4.328;2022-09-12T04:31:04;13.70;99.90
25716;DHT22;13573;50.936;4.328;2022-09-12T04:33:34;13.70;99.90
25716;DHT22;13573;50.936;4.328;2022-09-12T04:36:04;14.90;99.90
25716;DHT22;13573;50.936;4.328;2022-09-12T04:38:34;13.80;99.90
25716;DHT22;13573;50.936;4.328;2022-09-12T04:41:08;13.60;99.90
25716;DHT22;13573;50.936;4.328;2022-09-12T04:43:29;13.90;99.90
25716;DHT22;13573;50.936;4.328;2022-09-12T04:46:03;13.90;99.90
25716;DHT22;13573;50.936;4.328;2022-09-12T04:48:28;14.00;99.90
25716;DHT22;13573;50.936;4.328;2022-09-12T04:50:54;13.50;99.90
25716;DHT22;13573;50.936;4.328;2022-09-12T04:53:21;13.40;99.90
25716;DHT22;13573;50.936;4.328;2022-09-12T04:55:48;13.60;99.90
25716;DHT22;13573;50.936;4.328;2022-09-12T04:58:14;13.10;99.90
25716;DHT22;13573;50.936;4.328;2022-09-12T05:00:41;14.20;99.90
25716;DHT22;13573;50.936;4.328;2022-09-12T05:03:09;13.40;99.90
25716;DHT22;13573;50.936;4.328;2022-09-12T05:05:36;13.30;99.90
25716;DHT22;13573;50.936;4.328;2022-09-12T05:08:03;14.60;99.90
25716;DHT22;13573;50.936;4.328;2022-09-12T05:10:29;14.00;99.90
25716;DHT22;13573;50.936;4.328;2022-09-12T05:20:17;13.40;99.90
25716;DHT22;13573;50.936;4.328;2022-09-12T05:25:11;13.50;99.90
25716;DHT22;13573;50.936;4.328;2022-09-12T05:30:05;13.30;99.90
25716;DHT22;13573;50.936;4.328;2022-09-12T05:35:00;13.70;99.90
25716;DHT22;13573;50.936;4.328;2022-09-12T05:37:26;13.40;99.90
25716;DHT22;13573;50.936;4.328;2022-09-12T05:44:48;13.60;99.90
25716;DHT22;13573;50.936;4.328;2022-09-12T05:47:15;14.00;99.90
25716;DHT22;13573;50.936;4.328;2022-09-12T05:49:42;14.30;99.90
25716;DHT22;13573;50.936;4.328;2022-09-12T05:52:10;13.90;99.90
25716;DHT22;13573;50.936;4.328;2022-09-12T05:54:37;13.80;99.90
25716;DHT22;13573;50.936;4.328;2022-09-12T05:57:04;13.90;99.90
25716;DHT22;13573;50.936;4.328;2022-09-12T05:59:31;13.90;99.90
25716;DHT22;13573;50.936;4.328;2022-09-12T06:01:57;14.00;99.90
25716;DHT22;13573;50.936;4.328;2022-09-12T06:04:25;14.10;99.90
25716;DHT22;13573;50.936;4.328;2022-09-12T06:14:16;15.40;99.90
25716;DHT22;13573;50.936;4.328;2022-09-12T06:19:15;17.10;99.90
25716;DHT22;13573;50.936;4.328;2022-09-12T06:21:42;17.80;99.90
25716;DHT22;13573;50.936;4.328;2022-09-12T06:26:36;19.30;99.90
25716;DHT22;13573;50.936;4.328;2022-09-12T06:29:03;20.60;99.90
25716;DHT22;13573;50.936;4.328;2022-09-12T06:31:32;19.60;99.90
25716;DHT22;13573;50.936;4.328;2022-09-12T06:36:30;22.00;99.90
25716;DHT22;13573;50.936;4.328;2022-09-12T06:38:59;22.40;99.90
25716;DHT22;13573;50.936;4.328;2022-09-12T06:41:28;22.10;99.90
25716;DHT22;13573;50.936;4.328;2022-09-12T06:43:56;23.50;99.90
25716;DHT22;13573;50.936;4.328;2022-09-12T06:46:24;24.50;99.90
25716;DHT22;13573;50.936;4.328;2022-09-12T06:48:51;24.40;99.90
25716;DHT22;13573;50.936;4.328;2022-09-12T06:51:19;24.40;99.90
25716;DHT22;13573;50.936;4.328;2022-09-12T06:53:46;25.00;99.90
25716;DHT22;13573;50.936;4.328;2022-09-12T06:58:41;25.60;99.90
25716;DHT22;13573;50.936;4.328;2022-09-12T07:01:12;25.80;99.90
25716;DHT22;13573;50.936;4.328;2022-09-12T07:03:40;24.80;99.90
25716;DHT22;13573;50.936;4.328;2022-09-12T07:06:10;26.60;99.90
25716;DHT22;13573;50.936;4.328;2022-09-12T07:08:38;26.70;99.90
25716;DHT22;13573;50.936;4.328;2022-09-12T07:11:16;25.90;99.90
25716;DHT22;13573;50.936;4.328;2022-09-12T07:13:45;26.70;99.90
25716;DHT22;13573;50.936;4.328;2022-09-12T07:16:12;26.70;99.90
25716;DHT22;13573;50.936;4.328;2022-09-12T07:18:40;24.90;99.90
25716;DHT22;13573;50.936;4.328;2022-09-12T07:21:09;25.70;99.90
25716;DHT22;13573;50.936;4.328;2022-09-12T07:23:37;26.90;99.90
25716;DHT22;13573;50.936;4.328;2022-09-12T07:26:05;26.00;99.90
25716;DHT22;13573;50.936;4.328;2022-09-12T07:28:33;26.40;99.90
25716;DHT22;13573;50.936;4.328;2022-09-12T07:31:09;26.60;99.90
25716;DHT22;13573;50.936;4.328;2022-09-12T07:33:36;25.00;99.90
25716;DHT22;13573;50.936;4.328;2022-09-12T07:36:07;25.70;99.90
25716;DHT22;13573;50.936;4.328;2022-09-12T07:38:37;25.50;99.90
25716;DHT22;13573;50.936;4.328;2022-09-12T07:41:12;25.60;99.90
25716;DHT22;13573;50.936;4.328;2022-09-12T07:43:40;27.00;99.90
25716;DHT22;13573;50.936;4.328;2022-09-12T07:46:07;27.20;99.90
25716;DHT22;13573;50.936;4.328;2022-09-12T07:48:34;27.00;99.90
25716;DHT22;13573;50.936;4.328;2022-09-12T07:53:34;27.40;99.90
25716;DHT22;13573;50.936;4.328;2022-09-12T07:56:03;26.90;99.90
25716;DHT22;13573;50.936;4.328;2022-09-12T07:58:31;26.60;99.90
25716;DHT22;13573;50.936;4.328;2022-09-12T08:03:28;25.70;99.90
25716;DHT22;13573;50.936;4.328;2022-09-12T08:06:02;26.50;99.90
25716;DHT22;13573;50.936;4.328;2022-09-12T08:08:32;25.60;99.90
25716;DHT22;13573;50.936;4.328;2022-09-12T08:11:02;26.10;99.90
25716;DHT22;13573;50.936;4.328;2022-09-12T08:13:31;26.40;99.90
25716;DHT22;13573;50.936;4.328;2022-09-12T08:16:00;25.70;99.90
25716;DHT22;13573;50.936;4.328;2022-09-12T08:18:29;25.60;99.90
25716;DHT22;13573;50.936;4.328;2022-09-12T08:21:00;26.20;99.90
25716;DHT22;13573;50.936;4.328;2022-09-12T08:23:27;26.80;99.90
25716;DHT22;13573;50.936;4.328;2022-09-12T08:25:55;27.10;99.90
25716;DHT22;13573;50.936;4.328;2022-09-12T08:28:24;27.00;99.90
25716;DHT22;13573;50.936;4.328;2022-09-12T08:30:53;27.10;99.90
25716;DHT22;13573;50.936;4.328;2022-09-12T08:33:21;27.80;99.90
25716;DHT22;13573;50.936;4.328;2022-09-12T08:35:47;27.40;99.90
25716;DHT22;13573;50.936;4.328;2022-09-12T08:38:14;28.60;99.90
25716;DHT22;13573;50.936;4.328;2022-09-12T08:40:48;28.80;99.90
25716;DHT22;13573;50.936;4.328;2022-09-12T08:43:22;27.30;99.90
25716;DHT22;13573;50.936;4.328;2022-09-12T08:45:50;28.40;99.90
25716;DHT22;13573;50.936;4.328;2022-09-12T08:48:16;27.20;99.90
25716;DHT22;13573;50.936;4.328;2022-09-12T08:50:43;27.30;99.90
25716;DHT22;13573;50.936;4.328;2022-09-12T08:53:15;27.20;99.90
25716;DHT22;13573;50.936;4.328;2022-09-12T08:55:44;28.10;99.90
25716;DHT22;13573;50.936;4.328;2022-09-12T08:58:16;27.70;99.90
25716;DHT22;13573;50.936;4.328;2022-09-12T09:01:22;28.80;99.90
25716;DHT22;13573;50.936;4.328;2022-09-12T09:06:47;30.30;99.90
25716;DHT22;13573;50.936;4.328;2022-09-12T09:09:20;30.30;99.90
25716;DHT22;13573;50.936;4.328;2022-09-12T09:11:52;29.80;99.90
25716;DHT22;13573;50.936;4.328;2022-09-12T09:14:30;31.80;99.90
25716;DHT22;13573;50.936;4.328;2022-09-12T09:16:59;32.30;99.90
25716;DHT22;13573;50.936;4.328;2022-09-12T09:19:34;32.10;99.90
25716;DHT22;13573;50.936;4.328;2022-09-12T09:22:05;31.30;99.90
25716;DHT22;13573;50.936;4.328;2022-09-12T09:24:37;31.90;99.90
25716;DHT22;13573;50.936;4.328;2022-09-12T09:27:14;31.50;99.90
25716;DHT22;13573;50.936;4.328;2022-09-12T09:29:44;32.20;99.90
25716;DHT22;13573;50.936;4.328;2022-09-12T09:32:17;32.00;99.90
25716;DHT22;13573;50.936;4.328;2022-09-12T09:34:44;31.90;99.90
25716;DHT22;13573;50.936;4.328;2022-09-12T09:37:25;31.10;99.90
25716;DHT22;13573;50.936;4.328;2022-09-12T09:40:04;32.00;99.90
25716;DHT22;13573;50.936;4.328;2022-09-12T09:47:29;33.50;97.90
25716;DHT22;13573;50.936;4.328;2022-09-12T09:49:56;32.20;97.40
25716;DHT22;13573;50.936;4.328;2022-09-12T09:52:27;33.60;97.10
25716;DHT22;13573;50.936;4.328;2022-09-12T09:54:57;34.40;96.30
25716;DHT22;13573;50.936;4.328;2022-09-12T10:03:00;34.70;95.30
25716;DHT22;13573;50.936;4.328;2022-09-12T10:05:29;35.40;95.00
25716;DHT22;13573;50.936;4.328;2022-09-12T10:07:56;35.60;95.00
25716;DHT22;13573;50.936;4.328;2022-09-12T10:10:24;35.30;94.60
25716;DHT22;13573;50.936;4.328;2022-09-12T10:13:12;35.40;94.70
25716;DHT22;13573;50.936;4.328;2022-09-12T10:15:37;34.60;94.30
25716;DHT22;13573;50.936;4.328;2022-09-12T10:18:03;35.30;94.30
25716;DHT22;13573;50.936;4.328;2022-09-12T10:20:39;35.60;94.10
25716;DHT22;13573;50.936;4.328;2022-09-12T10:25:45;33.90;94.80
25716;DHT22;13573;50.936;4.328;2022-09-12T10:28:20;33.80;95.00
25716;DHT22;13573;50.936;4.328;2022-09-12T10:30:50;33.90;95.10
25716;DHT22;13573;50.936;4.328;2022-09-12T10:33:17;33.80;95.10
25716;DHT22;13573;50.936;4.328;2022-09-12T10:35:47;32.90;95.50
25716;DHT22;13573;50.936;4.328;2022-09-12T10:38:26;32.80;95.40
25716;DHT22;13573;50.936;4.328;2022-09-12T10:40:57;33.00;95.20
25716;DHT22;13573;50.936;4.328;2022-09-12T10:45:57;34.00;94.70
25716;DHT22;13573;50.936;4.328;2022-09-12T10:48:28;34.00;94.60
25716;DHT22;13573;50.936;4.328;2022-09-12T10:50:58;34.00;93.80
25716;DHT22;13573;50.936;4.328;2022-09-12T10:53:31;34.20;94.20
25716;DHT22;13573;50.936;4.328;2022-09-12T10:56:05;33.60;94.60
25716;DHT22;13573;50.936;4.328;2022-09-12T11:01:31;33.40;93.90
25716;DHT22;13573;50.936;4.328;2022-09-12T11:04:39;34.00;94.20
25716;DHT22;13573;50.936;4.328;2022-09-12T11:07:17;34.70;93.20
25716;DHT22;13573;50.936;4.328;2022-09-12T11:12:35;34.70;93.00
25716;DHT22;13573;50.936;4.328;2022-09-12T11:23:21;34.20;92.90
25716;DHT22;13573;50.936;4.328;2022-09-12T11:28:15;34.80;92.50
25716;DHT22;13573;50.936;4.328;2022-09-12T11:30:56;34.90;91.60
25716;DHT22;13573;50.936;4.328;2022-09-12T11:33:43;35.90;91.00
25716;DHT22;13573;50.936;4.328;2022-09-12T11:38:51;35.30;91.10
25716;DHT22;13573;50.936;4.328;2022-09-12T11:44:11;33.60;91.30
25716;DHT22;13573;50.936;4.328;2022-09-12T11:46:39;33.30;92.30
25716;DHT22;13573;50.936;4.328;2022-09-12T11:49:17;33.60;92.00
25716;DHT22;13573;50.936;4.328;2022-09-12T11:51:49;34.20;90.90
25716;DHT22;13573;50.936;4.328;2022-09-12T11:54:23;34.60;90.90
25716;DHT22;13573;50.936;4.328;2022-09-12T11:56:54;34.70;91.50
25716;DHT22;13573;50.936;4.328;2022-09-12T12:01:56;34.40;91.20
25716;DHT22;13573;50.936;4.328;2022-09-12T12:04:31;34.80;91.00
25716;DHT22;13573;50.936;4.328;2022-09-12T12:07:11;35.00;91.30
25716;DHT22;13573;50.936;4.328;2022-09-12T12:17:17;34.90;91.00
25716;DHT22;13573;50.936;4.328;2022-09-12T12:27:44;34.60;90.90
25716;DHT22;13573;50.936;4.328;2022-09-12T12:29:53;35.10;90.60
25716;DHT22;13573;50.936;4.328;2022-09-12T12:32:20;36.00;90.00
25716;DHT22;13573;50.936;4.328;2022-09-12T12:34:47;35.80;89.90
25716;DHT22;13573;50.936;4.328;2022-09-12T12:40:24;35.50;89.50
25716;DHT22;13573;50.936;4.328;2022-09-12T12:48:14;34.80;90.30
25716;DHT22;13573;50.936;4.328;2022-09-12T12:50:41;35.30;90.20
25716;DHT22;13573;50.936;4.328;2022-09-12T12:53:21;36.00;89.70
25716;DHT22;13573;50.936;4.328;2022-09-12T12:58:33;34.10;90.40
25716;DHT22;13573;50.936;4.328;2022-09-12T13:03:53;34.90;89.20
25716;DHT22;13573;50.936;4.328;2022-09-12T13:06:31;35.70;88.00
25716;DHT22;13573;50.936;4.328;2022-09-12T13:11:32;35.60;87.00
25716;DHT22;13573;50.936;4.328;2022-09-12T13:14:04;36.30;87.30
25716;DHT22;13573;50.936;4.328;2022-09-12T13:16:38;36.00;88.40
25716;DHT22;13573;50.936;4.328;2022-09-12T13:19:16;35.70;88.00
25716;DHT22;13573;50.936;4.328;2022-09-12T13:21:59;35.60;85.40
25716;DHT22;13573;50.936;4.328;2022-09-12T13:24:25;35.80;87.10
25716;DHT22;13573;50.936;4.328;2022-09-12T13:26:52;35.60;88.60
25716;DHT22;13573;50.936;4.328;2022-09-12T13:29:21;35.50;88.20
25716;DHT22;13573;50.936;4.328;2022-09-12T13:32:05;35.20;88.10
25716;DHT22;13573;50.936;4.328;2022-09-12T13:34:34;35.20;89.20
25716;DHT22;13573;50.936;4.328;2022-09-12T13:37:26;34.50;88.50
25716;DHT22;13573;50.936;4.328;2022-09-12T13:40:03;35.40;87.90
25716;DHT22;13573;50.936;4.328;2022-09-12T13:45:20;34.40;89.00
25716;DHT22;13573;50.936;4.328;2022-09-12T13:47:52;32.60;89.10
25716;DHT22;13573;50.936;4.328;2022-09-12T13:50:23;33.50;89.70
25716;DHT22;13573;50.936;4.328;2022-09-12T13:52:53;32.50;89.90
25716;DHT22;13573;50.936;4.328;2022-09-12T13:55:32;32.80;89.00
25716;DHT22;13573;50.936;4.328;2022-09-12T13:58:02;33.40;85.40
25716;DHT22;13573;50.936;4.328;2022-09-12T14:00:30;34.30;88.90
25716;DHT22;13573;50.936;4.328;2022-09-12T14:02:58;34.50;87.30
25716;DHT22;13573;50.936;4.328;2022-09-12T14:05:31;34.80;87.80
25716;DHT22;13573;50.936;4.328;2022-09-12T14:08:00;34.20;87.50
25716;DHT22;13573;50.936;4.328;2022-09-12T14:10:36;35.30;89.60
25716;DHT22;13573;50.936;4.328;2022-09-12T14:18:28;34.40;89.20
25716;DHT22;13573;50.936;4.328;2022-09-12T14:21:07;34.80;88.10
25716;DHT22;13573;50.936;4.328;2022-09-12T14:23:31;34.70;88.40
25716;DHT22;13573;50.936;4.328;2022-09-12T14:26:02;35.10;87.00
25716;DHT22;13573;50.936;4.328;2022-09-12T14:28:32;33.60;86.30
25716;DHT22;13573;50.936;4.328;2022-09-12T14:31:06;34.20;87.00
25716;DHT22;13573;50.936;4.328;2022-09-12T14:33:46;33.50;86.00
25716;DHT22;13573;50.936;4.328;2022-09-12T14:36:23;34.60;86.80
25716;DHT22;13573;50.936;4.328;2022-09-12T14:38:53;34.40;88.80
25716;DHT22;13573;50.936;4.328;2022-09-12T14:46:24;33.30;90.20
25716;DHT22;13573;50.936;4.328;2022-09-12T14:48:54;32.90;90.20
25716;DHT22;13573;50.936;4.328;2022-09-12T14:53:53;32.50;90.60
25716;DHT22;13573;50.936;4.328;2022-09-12T14:56:35;32.70;91.00
25716;DHT22;13573;50.936;4.328;2022-09-12T14:58:50;32.20;91.40
25716;DHT22;13573;50.936;4.328;2022-09-12T15:01:24;31.30;91.70
25716;DHT22;13573;50.936;4.328;2022-09-12T15:06:35;30.50;92.60
25716;DHT22;13573;50.936;4.328;2022-09-12T15:09:10;29.80;92.90
25716;DHT22;13573;50.936;4.328;2022-09-12T15:11:36;29.80;92.80
25716;DHT22;13573;50.936;4.328;2022-09-12T15:14:07;29.40;93.40
25716;DHT22;13573;50.936;4.328;2022-09-12T15:16:34;29.10;93.70
25716;DHT22;13573;50.936;4.328;2022-09-12T15:19:00;29.20;93.70
25716;DHT22;13573;50.936;4.328;2022-09-12T15:23:54;27.50;93.10
25716;DHT22;13573;50.936;4.328;2022-09-12T15:26:23;29.10;93.80
25716;DHT22;13573;50.936;4.328;2022-09-12T15:31:24;28.40;93.90
25716;DHT22;13573;50.936;4.328;2022-09-12T15:33:52;29.40;94.30
25716;DHT22;13573;50.936;4.328;2022-09-12T15:36:21;28.90;94.10
25716;DHT22;13573;50.936;4.328;2022-09-12T15:38:49;27.80;93.70
25716;DHT22;13573;50.936;4.328;2022-09-12T15:41:19;27.70;92.90
25716;DHT22;13573;50.936;4.328;2022-09-12T15:43:48;29.00;90.90
25716;DHT22;13573;50.936;4.328;2022-09-12T15:46:16;28.50;94.10
25716;DHT22;13573;50.936;4.328;2022-09-12T15:48:44;28.40;94.30
25716;DHT22;13573;50.936;4.328;2022-09-12T15:51:16;27.90;94.40
25716;DHT22;13573;50.936;4.328;2022-09-12T15:53:44;27.90;94.50
25716;DHT22;13573;50.936;4.328;2022-09-12T15:56:12;27.50;94.70
25716;DHT22;13573;50.936;4.328;2022-09-12T15:58:38;28.40;91.80
25716;DHT22;13573;50.936;4.328;2022-09-12T16:01:06;28.40;94.90
25716;DHT22;13573;50.936;4.328;2022-09-12T16:03:32;28.60;95.10
25716;DHT22;13573;50.936;4.328;2022-09-12T16:06:00;28.20;94.70
25716;DHT22;13573;50.936;4.328;2022-09-12T16:08:29;28.70;95.20
25716;DHT22;13573;50.936;4.328;2022-09-12T16:13:25;28.10;95.00
25716;DHT22;13573;50.936;4.328;2022-09-12T16:15:55;27.90;95.00
25716;DHT22;13573;50.936;4.328;2022-09-12T16:18:22;27.40;94.70
25716;DHT22;13573;50.936;4.328;2022-09-12T16:20:52;28.30;95.50
25716;DHT22;13573;50.936;4.328;2022-09-12T16:23:20;28.70;96.60
25716;DHT22;13573;50.936;4.328;2022-09-12T16:28:19;26.80;95.40
25716;DHT22;13573;50.936;4.328;2022-09-12T16:30:53;28.10;95.60
25716;DHT22;13573;50.936;4.328;2022-09-12T16:33:20;28.60;96.00
25716;DHT22;13573;50.936;4.328;2022-09-12T16:38:17;29.00;94.90
25716;DHT22;13573;50.936;4.328;2022-09-12T16:40:43;29.50;96.60
25716;DHT22;13573;50.936;4.328;2022-09-12T16:43:10;28.70;96.50
25716;DHT22;13573;50.936;4.328;2022-09-12T16:45:37;28.40;96.40
25716;DHT22;13573;50.936;4.328;2022-09-12T16:48:03;27.90;96.60
25716;DHT22;13573;50.936;4.328;2022-09-12T16:50:30;27.50;96.50
25716;DHT22;13573;50.936;4.328;2022-09-12T16:52:57;26.40;96.20
25716;DHT22;13573;50.936;4.328;2022-09-12T16:55:24;28.20;93.60
25716;DHT22;13573;50.936;4.328;2022-09-12T16:57:53;28.30;96.60
25716;DHT22;13573;50.936;4.328;2022-09-12T17:00:20;28.60;96.70
25716;DHT22;13573;50.936;4.328;2022-09-12T17:02:47;28.20;96.50
25716;DHT22;13573;50.936;4.328;2022-09-12T17:05:13;27.60;96.40
25716;DHT22;13573;50.936;4.328;2022-09-12T17:10:08;27.50;97.40
25716;DHT22;13573;50.936;4.328;2022-09-12T17:12:34;27.30;97.70
25716;DHT22;13573;50.936;4.328;2022-09-12T17:15:01;27.30;97.40
25716;DHT22;13573;50.936;4.328;2022-09-12T17:17:28;27.80;95.00
25716;DHT22;13573;50.936;4.328;2022-09-12T17:19:55;27.30;97.10
25716;DHT22;13573;50.936;4.328;2022-09-12T17:22:22;28.00;94.10
25716;DHT22;13573;50.936;4.328;2022-09-12T17:24:48;27.80;94.70
25716;DHT22;13573;50.936;4.328;2022-09-12T17:27:15;26.00;98.00
25716;DHT22;13573;50.936;4.328;2022-09-12T17:29:41;27.20;98.70
25716;DHT22;13573;50.936;4.328;2022-09-12T17:32:08;26.50;98.70
25716;DHT22;13573;50.936;4.328;2022-09-12T17:34:35;27.10;98.40
25716;DHT22;13573;50.936;4.328;2022-09-12T17:37:01;27.40;99.30
25716;DHT22;13573;50.936;4.328;2022-09-12T17:39:28;27.10;99.70
25716;DHT22;13573;50.936;4.328;2022-09-12T17:41:55;27.20;99.90
25716;DHT22;13573;50.936;4.328;2022-09-12T17:44:22;27.50;97.70
25716;DHT22;13573;50.936;4.328;2022-09-12T17:46:49;26.70;99.90
25716;DHT22;13573;50.936;4.328;2022-09-12T17:51:47;26.10;98.90
25716;DHT22;13573;50.936;4.328;2022-09-12T17:54:16;25.60;99.90
25716;DHT22;13573;50.936;4.328;2022-09-12T17:56:44;26.00;99.90
25716;DHT22;13573;50.936;4.328;2022-09-12T17:59:14;25.80;99.90
25716;DHT22;13573;50.936;4.328;2022-09-12T18:01:41;25.50;99.90
25716;DHT22;13573;50.936;4.328;2022-09-12T18:04:15;25.70;99.90
25716;DHT22;13573;50.936;4.328;2022-09-12T18:06:41;23.90;99.90
25716;DHT22;13573;50.936;4.328;2022-09-12T18:09:10;25.00;99.90
25716;DHT22;13573;50.936;4.328;2022-09-12T18:11:37;24.90;99.90
25716;DHT22;13573;50.936;4.328;2022-09-12T18:14:04;24.90;99.90
25716;DHT22;13573;50.936;4.328;2022-09-12T18:16:30;25.30;99.90
25716;DHT22;13573;50.936;4.328;2022-09-12T18:18:58;24.80;99.90
25716;DHT22;13573;50.936;4.328;2022-09-12T18:21:27;25.00;99.90
25716;DHT22;13573;50.936;4.328;2022-09-12T18:23:56;23.80;99.90
25716;DHT22;13573;50.936;4.328;2022-09-12T18:28:51;24.00;99.90
25716;DHT22;13573;50.936;4.328;2022-09-12T18:31:20;23.00;99.90
25716;DHT22;13573;50.936;4.328;2022-09-12T18:33:48;24.00;99.90
25716;DHT22;13573;50.936;4.328;2022-09-12T18:36:17;23.70;99.90
25716;DHT22;13573;50.936;4.328;2022-09-12T18:38:44;23.70;99.90
25716;DHT22;13573;50.936;4.328;2022-09-12T18:41:21;23.60;99.90
25716;DHT22;13573;50.936;4.328;2022-09-12T18:43:56;24.10;99.90
25716;DHT22;13573;50.936;4.328;2022-09-12T18:46:23;23.90;99.90
25716;DHT22;13573;50.936;4.328;2022-09-12T18:48:51;23.90;99.90
25716;DHT22;13573;50.936;4.328;2022-09-12T18:51:21;23.50;99.90
25716;DHT22;13573;50.936;4.328;2022-09-12T18:53:52;23.10;99.90
25716;DHT22;13573;50.936;4.328;2022-09-12T18:56:22;22.90;99.90
25716;DHT22;13573;50.936;4.328;2022-09-12T18:58:52;23.60;99.90
25716;DHT22;13573;50.936;4.328;2022-09-12T19:01:22;23.40;99.90
25716;DHT22;13573;50.936;4.328;2022-09-12T19:03:49;23.10;99.90
25716;DHT22;13573;50.936;4.328;2022-09-12T19:06:19;23.70;99.90
25716;DHT22;13573;50.936;4.328;2022-09-12T19:08:48;23.60;99.90
25716;DHT22;13573;50.936;4.328;2022-09-12T19:11:15;23.30;99.90
25716;DHT22;13573;50.936;4.328;2022-09-12T19:13:44;23.20;99.90
25716;DHT22;13573;50.936;4.328;2022-09-12T19:16:13;22.80;99.90
25716;DHT22;13573;50.936;4.328;2022-09-12T19:21:12;23.10;99.90
25716;DHT22;13573;50.936;4.328;2022-09-12T19:23:38;22.10;99.90
25716;DHT22;13573;50.936;4.328;2022-09-12T19:26:07;22.90;99.90
25716;DHT22;13573;50.936;4.328;2022-09-12T19:33:31;23.30;99.90
25716;DHT22;13573;50.936;4.328;2022-09-12T19:36:01;21.10;99.90
25716;DHT22;13573;50.936;4.328;2022-09-12T19:40:58;23.40;99.90
25716;DHT22;13573;50.936;4.328;2022-09-12T19:43:25;22.00;99.90
25716;DHT22;13573;50.936;4.328;2022-09-12T19:45:52;21.30;99.90